Terminal Aerodrome Forecast
Issued by NWS

Home | Current Version | Previous Version | Text Only | Print | Product List | Glossary On
Versions: 1 2 3 4 5 6 7 8 9 10 11 12 13 14 15 16
000
FTUS45 KABQ 202100 AAA
TAFROW
TAF AMD
KROW 202125Z 2021/2118 27010KT P6SM FEW090
     FM210100 24010KT P6SM SCT100
     FM210800 33010KT P6SM BKN080=

USA.gov is the U.S. government's official web portal to all federal, state and local government web resources and services.